sensor_id;sensor_type;location;lat;lon;timestamp;pressure;altitude;pressure_sealevel;temperature;humidity
21096;BME280;10706;49.036;12.112;2022-12-18T00:01:25;99027.66;;;-4.73;96.78
21096;BME280;10706;49.036;12.112;2022-12-18T00:03:53;99027.03;;;-4.64;97.76
21096;BME280;10706;49.036;12.112;2022-12-18T00:06:20;99015.50;;;-4.36;95.47
21096;BME280;10706;49.036;12.112;2022-12-18T00:08:47;99014.78;;;-4.38;95.70
21096;BME280;10706;49.036;12.112;2022-12-18T00:11:16;99003.47;;;-4.50;94.18
21096;BME280;10706;49.036;12.112;2022-12-18T00:13:43;99006.09;;;-4.75;96.26
21096;BME280;10706;49.036;12.112;2022-12-18T00:16:14;99014.16;;;-4.78;96.34
21096;BME280;10706;49.036;12.112;2022-12-18T00:18:42;99013.81;;;-4.74;96.13
21096;BME280;10706;49.036;12.112;2022-12-18T00:21:10;99005.00;;;-4.84;96.42
21096;BME280;10706;49.036;12.112;2022-12-18T00:23:37;99016.97;;;-4.81;96.32
21096;BME280;10706;49.036;12.112;2022-12-18T00:26:07;99014.78;;;-4.75;96.05
21096;BME280;10706;49.036;12.112;2022-12-18T00:28:33;99022.59;;;-4.88;97.15
21096;BME280;10706;49.036;12.112;2022-12-18T00:31:05;99030.94;;;-5.08;98.63
21096;BME280;10706;49.036;12.112;2022-12-18T00:33:31;99036.66;;;-4.90;97.28
21096;BME280;10706;49.036;12.112;2022-12-18T00:36:06;99042.81;;;-4.91;98.72
21096;BME280;10706;49.036;12.112;2022-12-18T00:38:33;99033.84;;;-4.87;97.61
21096;BME280;10706;49.036;12.112;2022-12-18T00:40:59;99037.81;;;-4.81;96.92
21096;BME280;10706;49.036;12.112;2022-12-18T00:43:25;99039.69;;;-4.83;97.16
21096;BME280;10706;49.036;12.112;2022-12-18T00:45:51;99044.47;;;-4.90;98.53
21096;BME280;10706;49.036;12.112;2022-12-18T00:48:17;99047.19;;;-4.92;97.44
21096;BME280;10706;49.036;12.112;2022-12-18T00:50:42;99049.13;;;-4.82;97.58
21096;BME280;10706;49.036;12.112;2022-12-18T00:53:11;99047.69;;;-4.74;96.93
21096;BME280;10706;49.036;12.112;2022-12-18T00:55:39;99054.88;;;-4.90;97.76
21096;BME280;10706;49.036;12.112;2022-12-18T00:58:05;99057.09;;;-4.97;97.85
21096;BME280;10706;49.036;12.112;2022-12-18T01:00:31;99051.56;;;-4.92;97.92
21096;BME280;10706;49.036;12.112;2022-12-18T01:02:57;99047.06;;;-4.77;98.19
21096;BME280;10706;49.036;12.112;2022-12-18T01:05:22;99049.38;;;-4.85;98.58
21096;BME280;10706;49.036;12.112;2022-12-18T01:07:48;99042.81;;;-4.78;98.01
21096;BME280;10706;49.036;12.112;2022-12-18T01:10:14;99046.75;;;-4.73;97.04
21096;BME280;10706;49.036;12.112;2022-12-18T01:12:40;99043.84;;;-4.81;98.00
21096;BME280;10706;49.036;12.112;2022-12-18T01:15:07;99047.78;;;-4.75;98.10
21096;BME280;10706;49.036;12.112;2022-12-18T01:17:33;99051.22;;;-4.62;97.32
21096;BME280;10706;49.036;12.112;2022-12-18T01:19:59;99051.34;;;-4.63;96.55
21096;BME280;10706;49.036;12.112;2022-12-18T01:22:25;99066.88;;;-4.88;98.05
21096;BME280;10706;49.036;12.112;2022-12-18T01:24:50;99069.88;;;-4.81;97.70
21096;BME280;10706;49.036;12.112;2022-12-18T01:27:16;99063.41;;;-4.88;97.44
21096;BME280;10706;49.036;12.112;2022-12-18T01:29:42;99064.03;;;-4.72;97.42
21096;BME280;10706;49.036;12.112;2022-12-18T01:32:08;99069.78;;;-4.66;96.93
21096;BME280;10706;49.036;12.112;2022-12-18T01:34:36;99059.47;;;-4.68;96.25
21096;BME280;10706;49.036;12.112;2022-12-18T01:37:04;99063.63;;;-4.65;97.17
21096;BME280;10706;49.036;12.112;2022-12-18T01:39:30;99059.69;;;-4.84;97.02
21096;BME280;10706;49.036;12.112;2022-12-18T01:41:58;99058.53;;;-4.80;97.66
21096;BME280;10706;49.036;12.112;2022-12-18T01:47:47;99074.59;;;-4.86;97.87
21096;BME280;10706;49.036;12.112;2022-12-18T01:53:21;99069.69;;;-4.91;97.17
21096;BME280;10706;49.036;12.112;2022-12-18T01:55:57;99078.94;;;-4.86;98.10
21096;BME280;10706;49.036;12.112;2022-12-18T01:58:41;99077.69;;;-4.81;97.83
21096;BME280;10706;49.036;12.112;2022-12-18T02:01:09;99079.06;;;-4.75;97.52
21096;BME280;10706;49.036;12.112;2022-12-18T02:03:35;99083.63;;;-4.79;97.27
21096;BME280;10706;49.036;12.112;2022-12-18T02:06:15;99087.28;;;-4.69;97.26
21096;BME280;10706;49.036;12.112;2022-12-18T02:09:02;99084.38;;;-4.64;96.69
21096;BME280;10706;49.036;12.112;2022-12-18T02:12:05;99089.06;;;-4.82;96.95
21096;BME280;10706;49.036;12.112;2022-12-18T02:17:45;99085.41;;;-4.79;97.62
21096;BME280;10706;49.036;12.112;2022-12-18T02:20:41;99086.03;;;-5.01;97.45
21096;BME280;10706;49.036;12.112;2022-12-18T02:26:29;99083.25;;;-4.73;96.85
21096;BME280;10706;49.036;12.112;2022-12-18T02:29:13;99087.91;;;-4.65;96.61
21096;BME280;10706;49.036;12.112;2022-12-18T02:31:51;99078.53;;;-4.55;95.61
21096;BME280;10706;49.036;12.112;2022-12-18T02:34:19;99083.00;;;-4.57;95.71
21096;BME280;10706;49.036;12.112;2022-12-18T02:36:48;99083.00;;;-4.70;96.73
21096;BME280;10706;49.036;12.112;2022-12-18T02:39:16;99081.47;;;-4.72;97.15
21096;BME280;10706;49.036;12.112;2022-12-18T02:41:43;99085.63;;;-4.70;97.36
21096;BME280;10706;49.036;12.112;2022-12-18T02:44:13;99075.19;;;-4.57;97.30
21096;BME280;10706;49.036;12.112;2022-12-18T02:46:50;99077.06;;;-4.72;97.40
21096;BME280;10706;49.036;12.112;2022-12-18T02:52:24;99086.47;;;-4.82;96.74
21096;BME280;10706;49.036;12.112;2022-12-18T02:55:00;99090.94;;;-4.84;96.99
21096;BME280;10706;49.036;12.112;2022-12-18T03:00:10;99095.22;;;-4.83;97.51
21096;BME280;10706;49.036;12.112;2022-12-18T03:02:45;99098.34;;;-4.78;97.17
21096;BME280;10706;49.036;12.112;2022-12-18T03:05:22;99098.13;;;-4.88;97.19
21096;BME280;10706;49.036;12.112;2022-12-18T03:08:14;99106.03;;;-4.89;97.00
21096;BME280;10706;49.036;12.112;2022-12-18T03:10:53;99091.88;;;-4.85;97.24
21096;BME280;10706;49.036;12.112;2022-12-18T03:13:36;99092.69;;;-4.72;97.10
21096;BME280;10706;49.036;12.112;2022-12-18T03:16:04;99085.50;;;-4.68;96.58
21096;BME280;10706;49.036;12.112;2022-12-18T03:18:45;99087.28;;;-4.69;96.04
21096;BME280;10706;49.036;12.112;2022-12-18T03:21:14;99091.25;;;-4.76;96.57
21096;BME280;10706;49.036;12.112;2022-12-18T03:23:47;99087.09;;;-4.78;96.97
21096;BME280;10706;49.036;12.112;2022-12-18T03:26:19;99093.56;;;-4.84;96.40
21096;BME280;10706;49.036;12.112;2022-12-18T03:28:51;99086.66;;;-4.85;95.96
21096;BME280;10706;49.036;12.112;2022-12-18T03:31:21;99097.69;;;-4.94;95.47
21096;BME280;10706;49.036;12.112;2022-12-18T03:33:53;99098.75;;;-4.84;96.42
21096;BME280;10706;49.036;12.112;2022-12-18T03:36:19;99096.88;;;-4.95;96.16
21096;BME280;10706;49.036;12.112;2022-12-18T03:38:46;99085.81;;;-5.11;96.91
21096;BME280;10706;49.036;12.112;2022-12-18T03:49:11;99080.41;;;-4.95;96.42
21096;BME280;10706;49.036;12.112;2022-12-18T03:52:26;99081.66;;;-5.01;96.40
21096;BME280;10706;49.036;12.112;2022-12-18T03:54:55;99081.03;;;-4.79;95.94
21096;BME280;10706;49.036;12.112;2022-12-18T03:57:25;99084.88;;;-4.84;95.09
21096;BME280;10706;49.036;12.112;2022-12-18T04:00:24;99089.78;;;-4.93;95.50
21096;BME280;10706;49.036;12.112;2022-12-18T04:02:56;99090.31;;;-4.88;96.19
21096;BME280;10706;49.036;12.112;2022-12-18T04:05:24;99086.56;;;-4.83;96.03
21096;BME280;10706;49.036;12.112;2022-12-18T04:07:51;99093.31;;;-4.81;95.55
21096;BME280;10706;49.036;12.112;2022-12-18T04:10:19;99096.13;;;-4.71;95.61
21096;BME280;10706;49.036;12.112;2022-12-18T04:12:45;99088.53;;;-4.61;94.94
21096;BME280;10706;49.036;12.112;2022-12-18T04:15:13;99100.00;;;-4.77;94.67
21096;BME280;10706;49.036;12.112;2022-12-18T04:17:46;99103.34;;;-4.75;94.75
21096;BME280;10706;49.036;12.112;2022-12-18T04:20:12;99109.16;;;-4.71;95.10
21096;BME280;10706;49.036;12.112;2022-12-18T04:22:38;99111.91;;;-4.73;95.44
21096;BME280;10706;49.036;12.112;2022-12-18T04:25:04;99103.56;;;-4.78;95.57
21096;BME280;10706;49.036;12.112;2022-12-18T04:27:30;99112.41;;;-4.80;94.41
21096;BME280;10706;49.036;12.112;2022-12-18T04:29:56;99110.19;;;-4.86;95.23
21096;BME280;10706;49.036;12.112;2022-12-18T04:32:22;99114.78;;;-4.77;95.79
21096;BME280;10706;49.036;12.112;2022-12-18T04:34:47;99112.53;;;-4.82;96.33
21096;BME280;10706;49.036;12.112;2022-12-18T04:37:13;99121.88;;;-4.79;95.89
21096;BME280;10706;49.036;12.112;2022-12-18T04:39:39;99118.97;;;-4.62;94.56
21096;BME280;10706;49.036;12.112;2022-12-18T04:42:05;99122.31;;;-4.73;94.44
21096;BME280;10706;49.036;12.112;2022-12-18T04:44:31;99125.84;;;-4.74;94.66
21096;BME280;10706;49.036;12.112;2022-12-18T04:46:56;99124.69;;;-4.70;93.42
21096;BME280;10706;49.036;12.112;2022-12-18T04:49:22;99122.94;;;-4.69;93.40
21096;BME280;10706;49.036;12.112;2022-12-18T04:51:48;99136.69;;;-4.67;93.81
21096;BME280;10706;49.036;12.112;2022-12-18T04:54:14;99131.47;;;-4.80;94.68
21096;BME280;10706;49.036;12.112;2022-12-18T04:56:39;99137.09;;;-4.86;95.86
21096;BME280;10706;49.036;12.112;2022-12-18T04:59:05;99140.00;;;-4.91;94.90
21096;BME280;10706;49.036;12.112;2022-12-18T05:01:31;99140.22;;;-4.81;93.26
21096;BME280;10706;49.036;12.112;2022-12-18T05:03:57;99129.38;;;-4.88;94.13
21096;BME280;10706;49.036;12.112;2022-12-18T05:06:22;99132.19;;;-4.91;94.92
21096;BME280;10706;49.036;12.112;2022-12-18T05:08:48;99133.16;;;-4.92;95.26
21096;BME280;10706;49.036;12.112;2022-12-18T05:11:15;99135.19;;;-5.10;95.51
21096;BME280;10706;49.036;12.112;2022-12-18T05:13:42;99140.84;;;-5.03;95.59
21096;BME280;10706;49.036;12.112;2022-12-18T05:16:08;99137.97;;;-5.13;96.00
21096;BME280;10706;49.036;12.112;2022-12-18T05:18:35;99145.78;;;-5.13;94.82
21096;BME280;10706;49.036;12.112;2022-12-18T05:21:01;99141.53;;;-5.14;95.26
21096;BME280;10706;49.036;12.112;2022-12-18T05:23:27;99140.59;;;-5.13;95.83
21096;BME280;10706;49.036;12.112;2022-12-18T05:25:59;99144.88;;;-5.12;95.12
21096;BME280;10706;49.036;12.112;2022-12-18T05:28:27;99142.88;;;-5.21;96.17
21096;BME280;10706;49.036;12.112;2022-12-18T05:30:57;99148.91;;;-5.20;96.84
21096;BME280;10706;49.036;12.112;2022-12-18T05:33:26;99147.06;;;-5.05;96.53
21096;BME280;10706;49.036;12.112;2022-12-18T05:35:58;99150.03;;;-5.24;95.33
21096;BME280;10706;49.036;12.112;2022-12-18T05:38:25;99150.22;;;-5.40;96.47
21096;BME280;10706;49.036;12.112;2022-12-18T05:40:52;99150.06;;;-5.52;96.77
21096;BME280;10706;49.036;12.112;2022-12-18T05:43:19;99155.44;;;-5.55;97.14
21096;BME280;10706;49.036;12.112;2022-12-18T05:45:47;99157.59;;;-5.61;96.57
21096;BME280;10706;49.036;12.112;2022-12-18T05:48:13;99164.66;;;-5.63;97.04
21096;BME280;10706;49.036;12.112;2022-12-18T05:50:42;99166.25;;;-5.61;96.25
21096;BME280;10706;49.036;12.112;2022-12-18T05:53:12;99160.50;;;-5.66;96.80
21096;BME280;10706;49.036;12.112;2022-12-18T05:55:40;99166.63;;;-5.67;97.19
21096;BME280;10706;49.036;12.112;2022-12-18T05:58:08;99176.84;;;-5.64;97.63
21096;BME280;10706;49.036;12.112;2022-12-18T06:00:37;99180.56;;;-5.68;97.58
21096;BME280;10706;49.036;12.112;2022-12-18T06:03:12;99186.59;;;-5.68;97.11
21096;BME280;10706;49.036;12.112;2022-12-18T06:05:41;99186.69;;;-5.69;97.54
21096;BME280;10706;49.036;12.112;2022-12-18T06:08:08;99182.47;;;-5.84;97.66
21096;BME280;10706;49.036;12.112;2022-12-18T06:10:34;99192.75;;;-5.69;96.46
21096;BME280;10706;49.036;12.112;2022-12-18T06:13:00;99186.69;;;-5.69;97.55
21096;BME280;10706;49.036;12.112;2022-12-18T06:15:26;99187.81;;;-5.73;97.56
21096;BME280;10706;49.036;12.112;2022-12-18T06:17:51;99177.97;;;-5.68;97.30
21096;BME280;10706;49.036;12.112;2022-12-18T06:20:17;99177.75;;;-5.65;97.47
21096;BME280;10706;49.036;12.112;2022-12-18T06:22:43;99182.75;;;-5.48;97.29
21096;BME280;10706;49.036;12.112;2022-12-18T06:25:09;99184.22;;;-5.43;96.67
21096;BME280;10706;49.036;12.112;2022-12-18T06:27:35;99182.34;;;-5.41;95.96
21096;BME280;10706;49.036;12.112;2022-12-18T06:30:01;99188.25;;;-5.52;96.18
21096;BME280;10706;49.036;12.112;2022-12-18T06:32:27;99197.09;;;-5.55;96.62
21096;BME280;10706;49.036;12.112;2022-12-18T06:34:53;99191.81;;;-5.68;97.75
21096;BME280;10706;49.036;12.112;2022-12-18T06:37:19;99190.59;;;-5.76;97.02
21096;BME280;10706;49.036;12.112;2022-12-18T06:39:45;99187.69;;;-5.99;98.06
21096;BME280;10706;49.036;12.112;2022-12-18T06:42:11;99188.97;;;-5.92;98.87
21096;BME280;10706;49.036;12.112;2022-12-18T06:44:37;99194.91;;;-5.90;98.60
21096;BME280;10706;49.036;12.112;2022-12-18T06:47:03;99202.13;;;-5.80;98.67
21096;BME280;10706;49.036;12.112;2022-12-18T06:49:29;99201.31;;;-5.81;98.60
21096;BME280;10706;49.036;12.112;2022-12-18T06:51:55;99201.66;;;-5.73;98.58
21096;BME280;10706;49.036;12.112;2022-12-18T06:54:20;99197.72;;;-5.51;98.00
21096;BME280;10706;49.036;12.112;2022-12-18T06:56:46;99202.94;;;-5.51;97.56
21096;BME280;10706;49.036;12.112;2022-12-18T06:59:13;99205.53;;;-5.51;96.67
21096;BME280;10706;49.036;12.112;2022-12-18T07:01:38;99211.66;;;-5.52;97.24
21096;BME280;10706;49.036;12.112;2022-12-18T07:04:04;99214.56;;;-5.71;98.22
21096;BME280;10706;49.036;12.112;2022-12-18T07:06:30;99217.66;;;-5.64;97.81
21096;BME280;10706;49.036;12.112;2022-12-18T07:08:56;99217.72;;;-5.52;98.29
21096;BME280;10706;49.036;12.112;2022-12-18T07:11:22;99226.03;;;-5.47;97.76
21096;BME280;10706;49.036;12.112;2022-12-18T07:13:48;99232.84;;;-5.44;97.04
21096;BME280;10706;49.036;12.112;2022-12-18T07:16:19;99224.97;;;-5.30;96.92
21096;BME280;10706;49.036;12.112;2022-12-18T07:18:45;99225.41;;;-5.50;97.32
21096;BME280;10706;49.036;12.112;2022-12-18T07:21:15;99227.44;;;-5.41;97.65
21096;BME280;10706;49.036;12.112;2022-12-18T07:23:41;99226.94;;;-5.33;97.13
21096;BME280;10706;49.036;12.112;2022-12-18T07:26:11;99231.88;;;-5.29;97.26
21096;BME280;10706;49.036;12.112;2022-12-18T07:28:40;99231.78;;;-5.27;97.09
21096;BME280;10706;49.036;12.112;2022-12-18T07:31:09;99220.91;;;-5.06;96.32
21096;BME280;10706;49.036;12.112;2022-12-18T07:33:36;99219.06;;;-5.04;95.47
21096;BME280;10706;49.036;12.112;2022-12-18T07:36:04;99222.88;;;-5.10;95.58
21096;BME280;10706;49.036;12.112;2022-12-18T07:38:33;99217.88;;;-5.13;96.83
21096;BME280;10706;49.036;12.112;2022-12-18T07:41:07;99207.44;;;-5.13;95.52
21096;BME280;10706;49.036;12.112;2022-12-18T07:43:34;99198.47;;;-5.22;96.04
21096;BME280;10706;49.036;12.112;2022-12-18T07:46:00;99208.09;;;-5.10;96.13
21096;BME280;10706;49.036;12.112;2022-12-18T07:48:27;99211.56;;;-4.96;94.89
21096;BME280;10706;49.036;12.112;2022-12-18T07:50:53;99212.91;;;-5.03;94.97
21096;BME280;10706;49.036;12.112;2022-12-18T07:53:18;99208.72;;;-5.06;95.32
21096;BME280;10706;49.036;12.112;2022-12-18T07:55:44;99212.97;;;-5.18;96.46
21096;BME280;10706;49.036;12.112;2022-12-18T07:58:10;99225.53;;;-5.24;95.82
21096;BME280;10706;49.036;12.112;2022-12-18T08:00:36;99225.47;;;-5.37;96.48
21096;BME280;10706;49.036;12.112;2022-12-18T08:03:02;99238.56;;;-5.39;96.80
21096;BME280;10706;49.036;12.112;2022-12-18T08:05:27;99239.69;;;-5.29;97.31
21096;BME280;10706;49.036;12.112;2022-12-18T08:07:54;99242.03;;;-5.11;96.92
21096;BME280;10706;49.036;12.112;2022-12-18T08:10:20;99239.34;;;-5.10;96.29
21096;BME280;10706;49.036;12.112;2022-12-18T08:12:50;99248.97;;;-4.97;96.01
21096;BME280;10706;49.036;12.112;2022-12-18T08:15:16;99238.59;;;-5.12;95.96
21096;BME280;10706;49.036;12.112;2022-12-18T08:17:42;99248.53;;;-5.04;95.64
21096;BME280;10706;49.036;12.112;2022-12-18T08:20:08;99250.63;;;-4.96;94.70
21096;BME280;10706;49.036;12.112;2022-12-18T08:22:35;99252.69;;;-4.74;93.39
21096;BME280;10706;49.036;12.112;2022-12-18T08:25:02;99254.59;;;-4.91;93.61
21096;BME280;10706;49.036;12.112;2022-12-18T08:27:28;99268.44;;;-5.03;93.32
21096;BME280;10706;49.036;12.112;2022-12-18T08:29:53;99268.84;;;-4.96;93.90
21096;BME280;10706;49.036;12.112;2022-12-18T08:32:19;99270.81;;;-5.00;94.57
21096;BME280;10706;49.036;12.112;2022-12-18T08:34:45;99273.34;;;-4.98;93.49
21096;BME280;10706;49.036;12.112;2022-12-18T08:37:11;99270.53;;;-4.95;93.84
21096;BME280;10706;49.036;12.112;2022-12-18T08:39:36;99270.41;;;-4.94;93.55
21096;BME280;10706;49.036;12.112;2022-12-18T08:42:02;99275.38;;;-5.03;94.35
21096;BME280;10706;49.036;12.112;2022-12-18T08:44:47;99276.34;;;-5.04;94.77
21096;BME280;10706;49.036;12.112;2022-12-18T08:47:13;99275.03;;;-4.97;93.55
21096;BME280;10706;49.036;12.112;2022-12-18T08:49:39;99270.91;;;-5.01;94.86
21096;BME280;10706;49.036;12.112;2022-12-18T08:52:04;99271.06;;;-4.90;94.07
21096;BME280;10706;49.036;12.112;2022-12-18T08:54:30;99277.72;;;-4.99;93.62
21096;BME280;10706;49.036;12.112;2022-12-18T08:56:56;99283.94;;;-4.74;93.55
21096;BME280;10706;49.036;12.112;2022-12-18T08:59:22;99284.19;;;-4.64;92.12
21096;BME280;10706;49.036;12.112;2022-12-18T09:01:49;99282.50;;;-4.65;92.71
21096;BME280;10706;49.036;12.112;2022-12-18T09:04:15;99285.88;;;-4.51;91.63
21096;BME280;10706;49.036;12.112;2022-12-18T09:06:40;99286.78;;;-4.64;91.82
21096;BME280;10706;49.036;12.112;2022-12-18T09:09:06;99281.94;;;-4.83;92.73
21096;BME280;10706;49.036;12.112;2022-12-18T09:11:33;99284.63;;;-4.85;93.28
21096;BME280;10706;49.036;12.112;2022-12-18T09:14:00;99275.00;;;-4.70;91.41
21096;BME280;10706;49.036;12.112;2022-12-18T09:16:28;99274.91;;;-4.69;91.30
21096;BME280;10706;49.036;12.112;2022-12-18T09:18:55;99289.28;;;-4.63;91.49
21096;BME280;10706;49.036;12.112;2022-12-18T09:21:27;99274.75;;;-4.80;93.04
21096;BME280;10706;49.036;12.112;2022-12-18T09:23:55;99282.34;;;-4.77;93.01
21096;BME280;10706;49.036;12.112;2022-12-18T09:26:22;99277.09;;;-4.62;91.74
21096;BME280;10706;49.036;12.112;2022-12-18T09:28:49;99280.44;;;-4.60;92.23
21096;BME280;10706;49.036;12.112;2022-12-18T09:31:17;99281.41;;;-4.48;90.94
21096;BME280;10706;49.036;12.112;2022-12-18T09:33:44;99276.34;;;-4.64;92.26
21096;BME280;10706;49.036;12.112;2022-12-18T09:36:13;99271.34;;;-4.68;92.54
21096;BME280;10706;49.036;12.112;2022-12-18T09:38:40;99275.03;;;-4.84;92.84
21096;BME280;10706;49.036;12.112;2022-12-18T09:44:20;99274.13;;;-4.31;89.83
21096;BME280;10706;49.036;12.112;2022-12-18T09:47:18;99262.25;;;-4.35;89.68
21096;BME280;10706;49.036;12.112;2022-12-18T09:49:56;99268.16;;;-4.45;90.79
21096;BME280;10706;49.036;12.112;2022-12-18T09:52:27;99265.78;;;-4.48;91.53
21096;BME280;10706;49.036;12.112;2022-12-18T09:55:23;99262.78;;;-4.70;90.53
21096;BME280;10706;49.036;12.112;2022-12-18T09:57:56;99254.38;;;-4.60;91.80
21096;BME280;10706;49.036;12.112;2022-12-18T10:00:24;99253.09;;;-4.68;90.15
21096;BME280;10706;49.036;12.112;2022-12-18T10:02:53;99248.88;;;-4.56;91.41
21096;BME280;10706;49.036;12.112;2022-12-18T10:08:46;99244.94;;;-4.23;88.73
21096;BME280;10706;49.036;12.112;2022-12-18T10:11:49;99248.75;;;-4.41;89.32
21096;BME280;10706;49.036;12.112;2022-12-18T10:17:19;99243.69;;;-4.43;90.49
21096;BME280;10706;49.036;12.112;2022-12-18T10:20:03;99249.50;;;-4.26;88.26
21096;BME280;10706;49.036;12.112;2022-12-18T10:25:53;99241.81;;;-4.41;90.00
21096;BME280;10706;49.036;12.112;2022-12-18T10:28:21;99243.66;;;-4.56;89.63
21096;BME280;10706;49.036;12.112;2022-12-18T10:30:48;99248.22;;;-4.59;90.29
21096;BME280;10706;49.036;12.112;2022-12-18T10:33:21;99242.72;;;-4.42;89.72
21096;BME280;10706;49.036;12.112;2022-12-18T10:35:50;99240.84;;;-4.40;89.87
21096;BME280;10706;49.036;12.112;2022-12-18T10:46:04;99231.00;;;-4.62;90.54
21096;BME280;10706;49.036;12.112;2022-12-18T10:48:34;99215.66;;;-4.79;90.29
21096;BME280;10706;49.036;12.112;2022-12-18T10:51:01;99216.75;;;-4.56;90.55
21096;BME280;10706;49.036;12.112;2022-12-18T10:53:30;99206.31;;;-4.56;88.35
21096;BME280;10706;49.036;12.112;2022-12-18T10:55:59;99214.38;;;-4.46;89.52
21096;BME280;10706;49.036;12.112;2022-12-18T10:58:31;99208.81;;;-4.68;89.86
21096;BME280;10706;49.036;12.112;2022-12-18T11:01:17;99218.00;;;-4.75;89.63
21096;BME280;10706;49.036;12.112;2022-12-18T11:04:01;99215.88;;;-4.70;88.84
21096;BME280;10706;49.036;12.112;2022-12-18T11:06:29;99219.41;;;-4.83;90.22
21096;BME280;10706;49.036;12.112;2022-12-18T11:09:19;99222.47;;;-4.64;90.21
21096;BME280;10706;49.036;12.112;2022-12-18T11:11:51;99220.59;;;-4.49;90.46
21096;BME280;10706;49.036;12.112;2022-12-18T11:14:24;99229.59;;;-4.40;88.79
21096;BME280;10706;49.036;12.112;2022-12-18T11:16:51;99230.00;;;-4.59;90.22
21096;BME280;10706;49.036;12.112;2022-12-18T11:19:35;99232.88;;;-4.64;90.60
21096;BME280;10706;49.036;12.112;2022-12-18T11:22:23;99237.31;;;-4.39;89.29
21096;BME280;10706;49.036;12.112;2022-12-18T11:25:05;99242.31;;;-4.48;88.72
21096;BME280;10706;49.036;12.112;2022-12-18T11:27:32;99243.69;;;-4.43;89.37
21096;BME280;10706;49.036;12.112;2022-12-18T11:30:20;99235.31;;;-4.22;87.23
21096;BME280;10706;49.036;12.112;2022-12-18T11:35:37;99221.56;;;-3.99;86.98
21096;BME280;10706;49.036;12.112;2022-12-18T11:38:24;99220.53;;;-4.09;87.49
21096;BME280;10706;49.036;12.112;2022-12-18T11:41:00;99221.47;;;-4.10;88.43
21096;BME280;10706;49.036;12.112;2022-12-18T11:43:54;99225.06;;;-3.74;85.47
21096;BME280;10706;49.036;12.112;2022-12-18T11:46:33;99241.25;;;-3.82;87.50
21096;BME280;10706;49.036;12.112;2022-12-18T11:49:25;99226.88;;;-3.87;86.74
21096;BME280;10706;49.036;12.112;2022-12-18T11:58:10;99226.03;;;-3.88;86.69
21096;BME280;10706;49.036;12.112;2022-12-18T12:00:56;99228.16;;;-4.32;89.83
21096;BME280;10706;49.036;12.112;2022-12-18T12:07:21;99225.69;;;-3.71;86.96
21096;BME280;10706;49.036;12.112;2022-12-18T12:21:42;99192.06;;;-3.38;85.96
21096;BME280;10706;49.036;12.112;2022-12-18T12:24:45;99186.41;;;-3.08;83.82
21096;BME280;10706;49.036;12.112;2022-12-18T12:27:54;99179.31;;;-3.06;83.63
21096;BME280;10706;49.036;12.112;2022-12-18T12:31:18;99182.97;;;-3.33;82.58
21096;BME280;10706;49.036;12.112;2022-12-18T12:39:23;99171.53;;;-3.43;86.59
21096;BME280;10706;49.036;12.112;2022-12-18T12:41:53;99181.69;;;-3.27;84.61
21096;BME280;10706;49.036;12.112;2022-12-18T12:44:46;99179.53;;;-3.33;83.55
21096;BME280;10706;49.036;12.112;2022-12-18T12:47:19;99177.38;;;-3.39;82.72
21096;BME280;10706;49.036;12.112;2022-12-18T12:49:48;99178.81;;;-3.35;82.58
21096;BME280;10706;49.036;12.112;2022-12-18T12:52:31;99174.56;;;-3.25;83.18
21096;BME280;10706;49.036;12.112;2022-12-18T12:54:59;99175.47;;;-3.37;84.63
21096;BME280;10706;49.036;12.112;2022-12-18T12:57:40;99181.41;;;-3.59;85.30
21096;BME280;10706;49.036;12.112;2022-12-18T13:00:15;99175.59;;;-3.76;84.27
21096;BME280;10706;49.036;12.112;2022-12-18T13:03:07;99180.31;;;-3.81;85.04
21096;BME280;10706;49.036;12.112;2022-12-18T13:05:51;99181.66;;;-3.75;85.29
21096;BME280;10706;49.036;12.112;2022-12-18T13:08:30;99167.59;;;-3.48;85.48
21096;BME280;10706;49.036;12.112;2022-12-18T13:10:58;99172.50;;;-3.57;85.26
21096;BME280;10706;49.036;12.112;2022-12-18T13:13:53;99178.25;;;-3.88;85.30
21096;BME280;10706;49.036;12.112;2022-12-18T13:16:23;99176.03;;;-3.82;85.47
21096;BME280;10706;49.036;12.112;2022-12-18T13:18:51;99177.50;;;-3.91;86.70
21096;BME280;10706;49.036;12.112;2022-12-18T13:21:37;99174.19;;;-4.05;86.03
21096;BME280;10706;49.036;12.112;2022-12-18T13:26:48;99181.91;;;-4.04;85.68
21096;BME280;10706;49.036;12.112;2022-12-18T13:29:45;99178.53;;;-3.80;84.30
21096;BME280;10706;49.036;12.112;2022-12-18T13:32:24;99175.94;;;-3.80;85.42
21096;BME280;10706;49.036;12.112;2022-12-18T13:37:54;99183.69;;;-4.17;85.88
21096;BME280;10706;49.036;12.112;2022-12-18T13:48:34;99180.06;;;-4.27;87.35
21096;BME280;10706;49.036;12.112;2022-12-18T13:51:08;99172.16;;;-4.26;86.51
21096;BME280;10706;49.036;12.112;2022-12-18T13:56:22;99172.53;;;-4.06;86.22
21096;BME280;10706;49.036;12.112;2022-12-18T13:59:26;99170.03;;;-4.08;85.63
21096;BME280;10706;49.036;12.112;2022-12-18T14:01:58;99162.94;;;-4.06;84.85
21096;BME280;10706;49.036;12.112;2022-12-18T14:04:31;99161.91;;;-4.29;85.95
21096;BME280;10706;49.036;12.112;2022-12-18T14:07:45;99162.97;;;-4.32;86.61
21096;BME280;10706;49.036;12.112;2022-12-18T14:09:57;99157.66;;;-4.56;87.74
21096;BME280;10706;49.036;12.112;2022-12-18T14:12:28;99168.38;;;-4.35;86.02
21096;BME280;10706;49.036;12.112;2022-12-18T14:20:52;99160.75;;;-4.38;85.79
21096;BME280;10706;49.036;12.112;2022-12-18T14:23:34;99160.03;;;-4.40;85.70
21096;BME280;10706;49.036;12.112;2022-12-18T14:28:49;99151.59;;;-4.82;87.16
21096;BME280;10706;49.036;12.112;2022-12-18T14:31:29;99155.72;;;-4.92;88.31
21096;BME280;10706;49.036;12.112;2022-12-18T14:33:55;99162.41;;;-4.88;87.43
21096;BME280;10706;49.036;12.112;2022-12-18T14:36:25;99162.09;;;-4.96;87.39
21096;BME280;10706;49.036;12.112;2022-12-18T14:38:54;99156.69;;;-4.80;86.46
21096;BME280;10706;49.036;12.112;2022-12-18T14:41:21;99150.00;;;-4.97;87.17
21096;BME280;10706;49.036;12.112;2022-12-18T14:43:51;99149.66;;;-5.05;88.59
21096;BME280;10706;49.036;12.112;2022-12-18T14:49:00;99145.00;;;-5.00;87.67
21096;BME280;10706;49.036;12.112;2022-12-18T14:51:29;99148.94;;;-5.08;87.98
21096;BME280;10706;49.036;12.112;2022-12-18T14:54:02;99148.09;;;-5.08;88.05
21096;BME280;10706;49.036;12.112;2022-12-18T14:56:35;99145.38;;;-5.19;88.30